createdAt,value
2022-12-25T00:01:43.203Z,100726.77
2022-12-25T00:06:45.989Z,100732.05
2022-12-25T00:11:48.798Z,100742.19
2022-12-25T00:16:52.369Z,100748.13
2022-12-25T00:21:55.079Z,100754.49
2022-12-25T00:26:57.839Z,100768.73
2022-12-25T00:32:01.181Z,100779.27
2022-12-25T00:37:04.051Z,100782.82
2022-12-25T00:42:18.717Z,100785.27
2022-12-25T00:47:21.974Z,100802.86
2022-12-25T00:52:24.901Z,100815.34
2022-12-25T00:57:27.766Z,100830.51
2022-12-25T01:02:30.635Z,100840.19
2022-12-25T01:07:33.717Z,100846.70
2022-12-25T01:12:40.108Z,100859.73
2022-12-25T01:17:44.442Z,100863.55
2022-12-25T01:22:47.169Z,100873.06
2022-12-25T01:27:50.316Z,100867.88
2022-12-25T01:32:53.447Z,100862.26
2022-12-25T01:37:56.214Z,100855.89
2022-12-25T01:42:58.985Z,100859.99
2022-12-25T01:48:06.364Z,100866.63
2022-12-25T01:53:09.191Z,100867.02
2022-12-25T01:58:12.071Z,100869.23
2022-12-25T02:03:14.967Z,100864.03
2022-12-25T02:08:20.700Z,100857.33
2022-12-25T02:13:23.426Z,100860.80
2022-12-25T02:18:56.870Z,100857.15
2022-12-25T02:24:37.064Z,100849.85
2022-12-25T02:30:10.403Z,100855.09
2022-12-25T02:35:28.504Z,100859.83
2022-12-25T02:40:57.634Z,100852.09
2022-12-25T02:46:23.403Z,100843.98
2022-12-25T02:51:48.399Z,100834.23
2022-12-25T02:57:09.957Z,100841.27
2022-12-25T03:02:33.101Z,100845.27
2022-12-25T03:07:37.686Z,100852.83
2022-12-25T03:12:54.074Z,100859.11
2022-12-25T03:17:59.455Z,100864.95
2022-12-25T03:23:23.352Z,100868.98
2022-12-25T03:28:27.736Z,100871.99
2022-12-25T03:34:23.985Z,100866.66
2022-12-25T03:39:49.540Z,100867.59
2022-12-25T03:45:58.257Z,100864.54
2022-12-25T03:51:25.127Z,100867.03
2022-12-25T03:56:47.076Z,100863.43
2022-12-25T04:02:09.398Z,100867.77
2022-12-25T04:07:30.774Z,100875.63
2022-12-25T04:12:52.220Z,100880.96
2022-12-25T04:18:14.030Z,100890.38
2022-12-25T04:23:35.368Z,100897.60
2022-12-25T04:28:56.709Z,100891.08
2022-12-25T04:34:18.295Z,100888.55
2022-12-25T04:39:21.026Z,100889.23
2022-12-25T04:44:23.762Z,100890.56
2022-12-25T04:49:28.455Z,100890.56
2022-12-25T04:54:31.233Z,100900.33
2022-12-25T04:59:33.998Z,100903.88
2022-12-25T05:04:36.773Z,100911.00
2022-12-25T05:09:42.423Z,100911.09
2022-12-25T05:14:45.210Z,100917.33
2022-12-25T05:19:48.027Z,100911.79
2022-12-25T05:24:50.822Z,100906.55
2022-12-25T05:29:53.615Z,100891.98
2022-12-25T05:34:56.310Z,100913.77
2022-12-25T05:39:59.214Z,100919.84
2022-12-25T05:45:02.139Z,100917.94
2022-12-25T05:50:05.728Z,100931.55
2022-12-25T05:55:08.763Z,100938.63
2022-12-25T06:00:12.189Z,100947.92
2022-12-25T06:05:15.464Z,100964.04
2022-12-25T06:10:18.736Z,100964.48
2022-12-25T06:15:21.630Z,100963.89
2022-12-25T06:20:24.392Z,100960.25
2022-12-25T06:25:27.180Z,100970.65
2022-12-25T06:30:30.018Z,100985.77
2022-12-25T06:35:32.999Z,100996.97
2022-12-25T06:40:35.743Z,101008.70
2022-12-25T06:45:38.718Z,101020.65
2022-12-25T06:50:44.696Z,101029.33
2022-12-25T06:55:47.689Z,101033.25
2022-12-25T07:00:50.537Z,101032.81
2022-12-25T07:05:53.343Z,101043.64
2022-12-25T07:10:56.631Z,101052.45
2022-12-25T07:16:00.448Z,101061.76
2022-12-25T07:21:11.720Z,101062.69
2022-12-25T07:26:15.037Z,101068.63
2022-12-25T07:31:18.215Z,101070.62
2022-12-25T07:36:21.153Z,101072.96
2022-12-25T07:41:23.999Z,101086.24
2022-12-25T07:46:28.615Z,101093.98
2022-12-25T07:51:31.508Z,101099.16
2022-12-25T07:56:34.240Z,101107.08
2022-12-25T08:01:37.224Z,101114.17
2022-12-25T08:06:40.793Z,101124.74
2022-12-25T08:11:47.400Z,101132.38
2022-12-25T08:16:50.281Z,101139.75
2022-12-25T08:21:54.409Z,101139.92
2022-12-25T08:26:57.145Z,101141.00
2022-12-25T08:32:00.845Z,101146.90
2022-12-25T08:37:03.698Z,101152.20
2022-12-25T08:42:06.447Z,101158.21
2022-12-25T08:47:09.937Z,101167.85
2022-12-25T08:52:12.733Z,101176.17
2022-12-25T08:57:15.526Z,101183.80
2022-12-25T09:02:18.719Z,101182.90
2022-12-25T09:07:21.694Z,101184.96
2022-12-25T09:12:24.399Z,101193.66
2022-12-25T09:17:29.605Z,101204.20
2022-12-25T09:22:32.350Z,101209.64
2022-12-25T09:27:35.131Z,101210.20
2022-12-25T09:32:40.366Z,101212.30
2022-12-25T09:37:45.820Z,101205.88
2022-12-25T09:42:48.803Z,101216.30
2022-12-25T09:47:51.567Z,101205.59
2022-12-25T09:53:07.445Z,101195.38
2022-12-25T09:58:12.822Z,101190.34
2022-12-25T10:03:38.343Z,101207.71
2022-12-25T10:09:35.863Z,101206.59
2022-12-25T10:15:17.080Z,101206.14
2022-12-25T10:20:42.093Z,101206.94
2022-12-25T10:25:47.423Z,101203.50
2022-12-25T10:31:19.912Z,101202.00
2022-12-25T10:36:26.170Z,101203.44
2022-12-25T10:41:44.922Z,101206.84
2022-12-25T10:46:49.400Z,101208.31
2022-12-25T10:51:52.235Z,101210.23
2022-12-25T10:57:01.206Z,101214.21
2022-12-25T11:02:31.463Z,101209.91
2022-12-25T11:07:46.695Z,101204.17
2022-12-25T11:12:49.635Z,101205.88
2022-12-25T11:17:52.480Z,101194.95
2022-12-25T11:22:56.091Z,101194.73
2022-12-25T11:28:04.077Z,101199.52
2022-12-25T11:33:10.978Z,101198.20
2022-12-25T11:38:13.710Z,101198.88
2022-12-25T11:43:23.743Z,101193.14
2022-12-25T11:48:31.820Z,101190.23
2022-12-25T11:53:59.931Z,101193.89
2022-12-25T11:59:20.779Z,101203.57
2022-12-25T12:04:38.495Z,101206.25
2022-12-25T12:10:15.190Z,101210.33
2022-12-25T12:15:30.951Z,101212.48
2022-12-25T12:20:35.039Z,101221.66
2022-12-25T12:25:41.457Z,101224.27
2022-12-25T12:30:44.320Z,101231.88
2022-12-25T12:35:47.156Z,101235.22
2022-12-25T12:41:04.183Z,101241.02
2022-12-25T12:46:24.518Z,101238.60
2022-12-25T12:51:33.147Z,101230.52
2022-12-25T12:56:35.979Z,101222.05
2022-12-25T13:01:47.893Z,101225.70
2022-12-25T13:07:32.362Z,101221.89
2022-12-25T13:12:35.206Z,101220.67
2022-12-25T13:17:38.026Z,101212.43
2022-12-25T13:22:40.877Z,101210.29
2022-12-25T13:27:45.755Z,101207.13
2022-12-25T13:32:49.406Z,101217.98
2022-12-25T13:37:52.875Z,101228.07
2022-12-25T13:42:59.733Z,101231.95
2022-12-25T13:48:16.063Z,101233.31
2022-12-25T13:53:18.857Z,101235.65
2022-12-25T13:58:30.759Z,101240.77
2022-12-25T14:03:39.492Z,101245.30
2022-12-25T14:08:42.422Z,101249.99
2022-12-25T14:13:45.154Z,101256.12
2022-12-25T14:18:56.847Z,101263.19
2022-12-25T14:23:59.561Z,101271.98
2022-12-25T14:29:17.664Z,101275.69
2022-12-25T14:34:23.094Z,101270.55
2022-12-25T14:39:32.137Z,101278.14
2022-12-25T14:44:38.977Z,101278.72
2022-12-25T14:49:41.725Z,101286.04
2022-12-25T14:54:54.426Z,101276.87
2022-12-25T15:00:35.466Z,101282.26
2022-12-25T15:05:39.176Z,101288.38
2022-12-25T15:16:17.092Z,101295.54
2022-12-25T15:21:28.407Z,101299.88
2022-12-25T15:26:33.395Z,101294.82
2022-12-25T15:31:37.880Z,101291.94
2022-12-25T15:36:40.714Z,101283.96
2022-12-25T15:42:02.382Z,101280.38
2022-12-25T15:47:05.529Z,101287.16
2022-12-25T15:52:10.734Z,101296.50
2022-12-25T15:57:18.358Z,101296.21
2022-12-25T16:02:21.444Z,101302.52
2022-12-25T16:07:25.926Z,101298.42
2022-12-25T16:12:28.715Z,101300.55
2022-12-25T16:17:31.409Z,101296.45
2022-12-25T16:22:39.893Z,101292.05
2022-12-25T16:27:43.610Z,101289.09
2022-12-25T16:32:49.242Z,101284.54
2022-12-25T16:37:52.003Z,101291.19
2022-12-25T16:42:55.704Z,101299.65
2022-12-25T16:47:58.491Z,101299.73
2022-12-25T16:53:01.280Z,101302.15
2022-12-25T16:58:05.232Z,101299.73
2022-12-25T17:03:08.110Z,101286.30
2022-12-25T17:08:11.017Z,101283.30
2022-12-25T17:13:13.756Z,101289.90
2022-12-25T17:18:17.420Z,101286.90
2022-12-25T17:23:20.757Z,101280.72
2022-12-25T17:28:23.569Z,101276.42
2022-12-25T17:33:26.400Z,101277.33
2022-12-25T17:38:32.630Z,101271.27
2022-12-25T17:43:37.275Z,101265.11
2022-12-25T17:48:40.370Z,101261.24
2022-12-25T17:53:45.915Z,101254.89
2022-12-25T17:58:53.325Z,101258.25
2022-12-25T18:03:56.166Z,101251.48
2022-12-25T18:09:00.241Z,101237.96
2022-12-25T18:14:04.021Z,101245.55
2022-12-25T18:19:06.943Z,101254.03
2022-12-25T18:24:09.830Z,101253.70
2022-12-25T18:29:12.675Z,101260.66
2022-12-25T18:34:15.737Z,101257.84
2022-12-25T18:39:18.482Z,101257.05
2022-12-25T18:44:21.291Z,101258.19
2022-12-25T18:49:24.163Z,101267.47
2022-12-25T18:54:28.042Z,101257.17
2022-12-25T18:59:31.160Z,101256.78
2022-12-25T19:04:33.907Z,101247.91
2022-12-25T19:09:36.724Z,101246.21
2022-12-25T19:14:47.218Z,101240.96
2022-12-25T19:19:51.044Z,101230.15
2022-12-25T19:24:53.867Z,101217.17
2022-12-25T19:29:56.707Z,101215.85
2022-12-25T19:35:04.381Z,101209.55
2022-12-25T19:40:27.038Z,101212.38
2022-12-25T19:45:29.873Z,101203.19
2022-12-25T19:50:32.744Z,101200.96
2022-12-25T19:55:36.448Z,101213.16
2022-12-25T20:00:41.829Z,101210.02
2022-12-25T20:05:45.517Z,101211.65
2022-12-25T20:10:48.333Z,101212.80
2022-12-25T20:15:51.311Z,101218.36
2022-12-25T20:21:11.554Z,101218.67
2022-12-25T20:26:15.174Z,101212.73
2022-12-25T20:31:28.022Z,101205.52
2022-12-25T20:36:36.356Z,101200.36
2022-12-25T20:41:40.739Z,101198.77
2022-12-25T20:46:44.326Z,101190.59
2022-12-25T20:51:47.160Z,101187.38
2022-12-25T20:56:49.891Z,101191.61
2022-12-25T21:01:54.354Z,101179.70
2022-12-25T21:06:57.276Z,101172.89
2022-12-25T21:12:00.198Z,101164.55
2022-12-25T21:17:03.099Z,101162.67
2022-12-25T21:22:06.088Z,101149.02
2022-12-25T21:27:09.087Z,101135.16
2022-12-25T21:32:31.008Z,101129.95
2022-12-25T21:37:33.772Z,101142.39
2022-12-25T21:42:36.663Z,101138.56
2022-12-25T21:48:02.294Z,101129.02
2022-12-25T21:53:04.697Z,101129.05
2022-12-25T21:58:07.452Z,101125.73
2022-12-25T22:03:10.291Z,101119.38
2022-12-25T22:08:13.119Z,101116.59
2022-12-25T22:13:34.726Z,101106.38
2022-12-25T22:18:56.376Z,101100.39
2022-12-25T22:23:59.232Z,101090.66
2022-12-25T22:29:02.833Z,101088.91
2022-12-25T22:34:06.552Z,101079.23
2022-12-25T22:39:09.371Z,101062.73
2022-12-25T22:44:17.854Z,101050.89
2022-12-25T22:49:21.717Z,101045.55
2022-12-25T22:54:24.867Z,101043.94
2022-12-25T22:59:27.632Z,101048.53
2022-12-25T23:04:30.745Z,101042.52
2022-12-25T23:09:33.558Z,101027.02
2022-12-25T23:14:39.222Z,101022.77
2022-12-25T23:20:00.540Z,101027.80
2022-12-25T23:25:22.455Z,101021.23
2022-12-25T23:30:25.267Z,101007.61
2022-12-25T23:35:28.925Z,100999.38
2022-12-25T23:40:31.889Z,101008.02
2022-12-25T23:45:34.700Z,101002.40
2022-12-25T23:50:37.605Z,100996.48
2022-12-25T23:55:42.581Z,100989.50
